Air Navigation Services of Czech Republic  
Last data update:  25.08.2019 22:30:37 UTC Česká verze
   METEO Page displayed:  25.08.2019 22:30:58 UTC  
help
METAR EDDB 252220Z 09007KT CAVOK 22/13 Q1021 NOSIG=
METAR EDDC 252220Z 16003KT CAVOK 22/16 Q1021=
METAR EDDE 252220Z 21004KT CAVOK 20/17 Q1020=
METAR EDDF 252220Z VRB01KT CAVOK 21/15 Q1018 NOSIG=
METAR EDDM 252220Z 16004KT CAVOK 16/15 Q1021 NOSIG=
METAR EDDN 252220Z 10004KT CAVOK 20/18 Q1020=
METAR EDDP 252220Z 09008KT CAVOK 22/16 Q1020 NOSIG=
METAR EDDT 252220Z 08004KT 050V110 CAVOK 23/13 Q1021=
METAR EDQM NIL
METAR EPBY 252200Z 11005KT CAVOK 19/11 Q1024=
METAR EPGD 252200Z 26001KT CAVOK 17/16 Q1025=
METAR EPKK 252200Z 09003KT CAVOK 20/18 Q1022=
METAR EPKT 252200Z VRB02KT CAVOK 18/16 Q1022=
METAR EPLL 252200Z 08008KT CAVOK 21/13 Q1023=
METAR EPPO 252200Z 08007KT CAVOK 21/13 Q1023=
METAR EPRZ 252200Z 05005KT CAVOK 20/15 Q1023=
METAR EPWA 252200Z 10009KT CAVOK 21/12 Q1025 NOSIG=
METAR EPWR 252200Z 09004KT CAVOK 22/15 Q1021=
METAR LHBP 252200Z 26007KT 9999 FEW060CB SCT120 23/18 Q1020 NOSIG=
METAR LHSM 252145Z AUTO 31004KT 8000 NCD 20/19 Q1020=
METAR LKBC 252200Z AUTO 08003KT CAVOK 20/16 Q1022=
METAR LKCV 252200Z 13004KT CAVOK 21/16 Q1021 NOSIG RMK BLU BLU=
METAR LKKB 252200Z 07006KT CAVOK 22/17 Q1021 RMK BLU=
METAR LKKU NIL
METAR LKKV 252200Z VRB02KT CAVOK 18/14 Q1022 RMK REG QNH 1019=
METAR LKLN 252230Z AUTO 00000KT CAVOK 18/16 Q1021=
METAR LKMT 252230Z 00000KT 3000 R22/1500D R04/1400U MIFG BR SCT003 18/17 Q1022 TEMPO 1200 BCFG BKN002 RMK REG QNH 1019=
METAR LKNA 252200Z 04003KT CAVOK 20/15 Q1022 RMK BLU=
METAR LKPD 252200Z VRB02KT CAVOK 20/17 Q1021 RMK BLU=
METAR LKPJ 252200Z AUTO VRB02KT 9999 BKN160/// BKN220/// ///// Q////=
METAR LKPR 252230Z 11004KT 090V170 CAVOK 20/16 Q1021 NOSIG RMK REG QNH 1019=
METAR LKTB 252230Z 04005KT 9999 -SHRA VCTS SCT052CB 21/18 Q1021 TEMPO 4500 SHRA RMK REG QNH 1019=
METAR LKVO NIL
METAR LOWI 252220Z AUTO VRB02KT 9999 FEW130 BKN140 17/15 Q1023=
METAR LOWL 252220Z AUTO 29003KT 250V320 9999 FEW070 20/17 Q1020=
METAR LOWS 252220Z AUTO 11005KT 080V140 9999 //////CB FEW120 BKN130 19/17 Q1021=
METAR LOWW 252220Z VRB02KT 9999 FEW048 BKN070 21/18 Q1021 NOSIG=
METAR LZIB 252200Z 34004KT CAVOK 22/18 Q1020=
METAR LZKZ 252200Z 03005KT CAVOK 21/17 Q1022=
METAR LZMC 252100Z 10004KT 9999 VCTS SCT042CB SCT090 BKN110 21/18 Q1022=
METAR LZPP 252200Z AUTO 06003KT 020V120 9999 OVC210/// 21/18 Q1021=
METAR LZSL 252200Z VRB01KT CAVOK 18/16 Q1023=
METAR LZTT 252200Z 26010KT CAVOK 17/16 Q1025=
METAR LZZI 252200Z VRB03KT CAVOK 18/17 Q1023=